sensor_id;sensor_type;location;lat;lon;timestamp;temperature;humidity
40660;DHT22;26753;45.544;9.232;2022-10-19T00:02:25;19.50;99.90
40660;DHT22;26753;45.544;9.232;2022-10-19T00:04:50;19.50;99.90
40660;DHT22;26753;45.544;9.232;2022-10-19T00:07:16;19.40;99.90
40660;DHT22;26753;45.544;9.232;2022-10-19T00:09:43;19.40;99.90
40660;DHT22;26753;45.544;9.232;2022-10-19T00:12:10;19.40;99.90
40660;DHT22;26753;45.544;9.232;2022-10-19T00:14:37;19.40;99.90
40660;DHT22;26753;45.544;9.232;2022-10-19T00:17:03;19.30;99.90
40660;DHT22;26753;45.544;9.232;2022-10-19T00:19:28;19.10;99.90
40660;DHT22;26753;45.544;9.232;2022-10-19T00:21:54;19.00;99.90
40660;DHT22;26753;45.544;9.232;2022-10-19T00:24:20;19.00;99.90
40660;DHT22;26753;45.544;9.232;2022-10-19T00:26:46;18.90;99.90
40660;DHT22;26753;45.544;9.232;2022-10-19T00:29:13;18.80;99.90
40660;DHT22;26753;45.544;9.232;2022-10-19T00:31:39;18.70;99.90
40660;DHT22;26753;45.544;9.232;2022-10-19T00:34:05;18.60;99.90
40660;DHT22;26753;45.544;9.232;2022-10-19T00:36:33;18.50;99.90
40660;DHT22;26753;45.544;9.232;2022-10-19T00:39:00;18.50;99.90
40660;DHT22;26753;45.544;9.232;2022-10-19T00:41:29;18.40;99.90
40660;DHT22;26753;45.544;9.232;2022-10-19T00:44:00;18.40;99.90
40660;DHT22;26753;45.544;9.232;2022-10-19T00:46:28;18.40;99.90
40660;DHT22;26753;45.544;9.232;2022-10-19T00:49:01;18.70;99.90
40660;DHT22;26753;45.544;9.232;2022-10-19T00:51:28;18.30;99.90
40660;DHT22;26753;45.544;9.232;2022-10-19T00:53:55;18.30;99.90
40660;DHT22;26753;45.544;9.232;2022-10-19T00:56:21;18.80;99.90
40660;DHT22;26753;45.544;9.232;2022-10-19T00:58:47;18.20;99.90
40660;DHT22;26753;45.544;9.232;2022-10-19T01:01:17;18.30;99.90
40660;DHT22;26753;45.544;9.232;2022-10-19T01:03:44;18.50;99.90
40660;DHT22;26753;45.544;9.232;2022-10-19T01:06:11;18.40;99.90
40660;DHT22;26753;45.544;9.232;2022-10-19T01:08:38;18.30;99.90
40660;DHT22;26753;45.544;9.232;2022-10-19T01:11:25;18.30;99.90
40660;DHT22;26753;45.544;9.232;2022-10-19T01:14:13;18.20;99.90
40660;DHT22;26753;45.544;9.232;2022-10-19T01:34:05;17.90;99.90
40660;DHT22;26753;45.544;9.232;2022-10-19T01:36:41;17.90;99.90
40660;DHT22;26753;45.544;9.232;2022-10-19T01:41:48;17.80;99.90
40660;DHT22;26753;45.544;9.232;2022-10-19T01:44:26;17.80;99.90
40660;DHT22;26753;45.544;9.232;2022-10-19T01:47:03;17.80;99.90
40660;DHT22;26753;45.544;9.232;2022-10-19T01:49:56;17.80;99.90
40660;DHT22;26753;45.544;9.232;2022-10-19T01:52:25;17.80;99.90
40660;DHT22;26753;45.544;9.232;2022-10-19T01:54:56;17.80;99.90
40660;DHT22;26753;45.544;9.232;2022-10-19T01:57:31;17.70;99.90
40660;DHT22;26753;45.544;9.232;2022-10-19T01:59:57;17.80;99.90
40660;DHT22;26753;45.544;9.232;2022-10-19T02:02:27;17.70;99.90
40660;DHT22;26753;45.544;9.232;2022-10-19T02:04:55;17.80;99.90
40660;DHT22;26753;45.544;9.232;2022-10-19T02:07:22;17.70;99.90
40660;DHT22;26753;45.544;9.232;2022-10-19T02:09:49;17.70;99.90
40660;DHT22;26753;45.544;9.232;2022-10-19T02:12:16;17.70;99.90
40660;DHT22;26753;45.544;9.232;2022-10-19T02:14:45;17.70;99.90
40660;DHT22;26753;45.544;9.232;2022-10-19T02:17:24;17.70;99.90
40660;DHT22;26753;45.544;9.232;2022-10-19T02:19:52;17.70;99.90
40660;DHT22;26753;45.544;9.232;2022-10-19T02:22:18;17.60;99.90
40660;DHT22;26753;45.544;9.232;2022-10-19T02:24:44;17.60;99.90
40660;DHT22;26753;45.544;9.232;2022-10-19T02:27:10;17.60;99.90
40660;DHT22;26753;45.544;9.232;2022-10-19T02:29:36;17.50;99.90
40660;DHT22;26753;45.544;9.232;2022-10-19T02:32:03;17.50;99.90
40660;DHT22;26753;45.544;9.232;2022-10-19T02:34:29;17.50;99.90
40660;DHT22;26753;45.544;9.232;2022-10-19T02:36:55;17.50;99.90
40660;DHT22;26753;45.544;9.232;2022-10-19T02:39:21;17.50;99.90
40660;DHT22;26753;45.544;9.232;2022-10-19T02:42:08;17.50;99.90
40660;DHT22;26753;45.544;9.232;2022-10-19T02:47:26;17.40;99.90
40660;DHT22;26753;45.544;9.232;2022-10-19T02:49:53;17.40;99.90
40660;DHT22;26753;45.544;9.232;2022-10-19T02:52:18;17.50;99.90
40660;DHT22;26753;45.544;9.232;2022-10-19T02:54:44;17.40;99.90
40660;DHT22;26753;45.544;9.232;2022-10-19T02:57:15;17.40;99.90
40660;DHT22;26753;45.544;9.232;2022-10-19T02:59:42;17.40;99.90
40660;DHT22;26753;45.544;9.232;2022-10-19T03:02:07;17.30;99.90
40660;DHT22;26753;45.544;9.232;2022-10-19T03:04:33;17.40;99.90
40660;DHT22;26753;45.544;9.232;2022-10-19T03:06:59;17.30;99.90
40660;DHT22;26753;45.544;9.232;2022-10-19T03:09:25;17.40;99.90
40660;DHT22;26753;45.544;9.232;2022-10-19T03:11:51;17.40;99.90
40660;DHT22;26753;45.544;9.232;2022-10-19T03:14:17;17.40;99.90
40660;DHT22;26753;45.544;9.232;2022-10-19T03:16:43;17.30;99.90
40660;DHT22;26753;45.544;9.232;2022-10-19T03:19:08;17.40;99.90
40660;DHT22;26753;45.544;9.232;2022-10-19T03:21:34;17.40;99.90
40660;DHT22;26753;45.544;9.232;2022-10-19T03:24:00;17.40;99.90
40660;DHT22;26753;45.544;9.232;2022-10-19T03:26:26;17.40;99.90
40660;DHT22;26753;45.544;9.232;2022-10-19T03:28:52;17.40;99.90
40660;DHT22;26753;45.544;9.232;2022-10-19T03:31:18;17.30;99.90
40660;DHT22;26753;45.544;9.232;2022-10-19T03:33:44;17.30;99.90
40660;DHT22;26753;45.544;9.232;2022-10-19T03:36:18;17.30;99.90
40660;DHT22;26753;45.544;9.232;2022-10-19T03:38:45;17.30;99.90
40660;DHT22;26753;45.544;9.232;2022-10-19T03:41:11;17.20;99.90
40660;DHT22;26753;45.544;9.232;2022-10-19T03:43:37;17.30;99.90
40660;DHT22;26753;45.544;9.232;2022-10-19T03:46:03;17.30;99.90
40660;DHT22;26753;45.544;9.232;2022-10-19T03:48:29;17.20;99.90
40660;DHT22;26753;45.544;9.232;2022-10-19T03:50:59;17.30;99.90
40660;DHT22;26753;45.544;9.232;2022-10-19T03:53:26;18.00;99.90
40660;DHT22;26753;45.544;9.232;2022-10-19T03:55:51;17.20;99.90
40660;DHT22;26753;45.544;9.232;2022-10-19T03:58:17;17.20;99.90
40660;DHT22;26753;45.544;9.232;2022-10-19T04:00:46;17.10;99.90
40660;DHT22;26753;45.544;9.232;2022-10-19T04:03:11;17.20;99.90
40660;DHT22;26753;45.544;9.232;2022-10-19T04:05:37;17.20;99.90
40660;DHT22;26753;45.544;9.232;2022-10-19T04:08:03;17.20;99.90
40660;DHT22;26753;45.544;9.232;2022-10-19T04:10:30;17.10;99.90
40660;DHT22;26753;45.544;9.232;2022-10-19T04:12:56;17.10;99.90
40660;DHT22;26753;45.544;9.232;2022-10-19T04:15:21;17.10;99.90
40660;DHT22;26753;45.544;9.232;2022-10-19T04:17:47;17.10;99.90
40660;DHT22;26753;45.544;9.232;2022-10-19T04:20:13;17.10;99.90
40660;DHT22;26753;45.544;9.232;2022-10-19T04:22:39;17.10;99.90
40660;DHT22;26753;45.544;9.232;2022-10-19T04:25:05;17.00;99.90
40660;DHT22;26753;45.544;9.232;2022-10-19T04:27:31;17.00;99.90
40660;DHT22;26753;45.544;9.232;2022-10-19T04:29:56;17.10;99.90
40660;DHT22;26753;45.544;9.232;2022-10-19T04:32:22;17.00;99.90
40660;DHT22;26753;45.544;9.232;2022-10-19T04:34:47;17.00;99.90
40660;DHT22;26753;45.544;9.232;2022-10-19T04:37:13;17.10;99.90
40660;DHT22;26753;45.544;9.232;2022-10-19T04:39:39;17.00;99.90
40660;DHT22;26753;45.544;9.232;2022-10-19T04:42:07;17.00;99.90
40660;DHT22;26753;45.544;9.232;2022-10-19T04:44:33;17.10;99.90
40660;DHT22;26753;45.544;9.232;2022-10-19T04:46:59;17.00;99.90
40660;DHT22;26753;45.544;9.232;2022-10-19T04:49:24;17.10;99.90
40660;DHT22;26753;45.544;9.232;2022-10-19T04:51:50;17.10;99.90
40660;DHT22;26753;45.544;9.232;2022-10-19T04:54:16;17.20;99.90
40660;DHT22;26753;45.544;9.232;2022-10-19T04:56:42;17.10;99.90
40660;DHT22;26753;45.544;9.232;2022-10-19T04:59:09;17.20;99.90
40660;DHT22;26753;45.544;9.232;2022-10-19T05:01:34;17.10;99.90
40660;DHT22;26753;45.544;9.232;2022-10-19T05:04:01;17.20;99.90
40660;DHT22;26753;45.544;9.232;2022-10-19T05:06:29;17.10;99.90
40660;DHT22;26753;45.544;9.232;2022-10-19T05:08:55;17.10;99.90
40660;DHT22;26753;45.544;9.232;2022-10-19T05:11:20;17.10;99.90
40660;DHT22;26753;45.544;9.232;2022-10-19T05:13:47;17.10;99.90
40660;DHT22;26753;45.544;9.232;2022-10-19T05:16:19;17.20;99.90
40660;DHT22;26753;45.544;9.232;2022-10-19T05:19:03;17.20;99.90
40660;DHT22;26753;45.544;9.232;2022-10-19T05:21:28;17.20;99.90
40660;DHT22;26753;45.544;9.232;2022-10-19T05:23:55;17.20;99.90
40660;DHT22;26753;45.544;9.232;2022-10-19T05:26:24;17.20;99.90
40660;DHT22;26753;45.544;9.232;2022-10-19T05:28:57;17.20;99.90
40660;DHT22;26753;45.544;9.232;2022-10-19T05:31:26;17.20;99.90
40660;DHT22;26753;45.544;9.232;2022-10-19T05:33:52;17.20;99.90
40660;DHT22;26753;45.544;9.232;2022-10-19T05:36:19;17.20;99.90
40660;DHT22;26753;45.544;9.232;2022-10-19T05:38:47;17.20;99.90
40660;DHT22;26753;45.544;9.232;2022-10-19T05:41:13;17.20;99.90
40660;DHT22;26753;45.544;9.232;2022-10-19T05:43:40;17.20;99.90
40660;DHT22;26753;45.544;9.232;2022-10-19T05:46:08;17.20;99.90
40660;DHT22;26753;45.544;9.232;2022-10-19T05:48:34;17.20;99.90
40660;DHT22;26753;45.544;9.232;2022-10-19T05:51:01;17.10;99.90
40660;DHT22;26753;45.544;9.232;2022-10-19T05:53:29;17.10;99.90
40660;DHT22;26753;45.544;9.232;2022-10-19T05:55:55;17.10;99.90
40660;DHT22;26753;45.544;9.232;2022-10-19T05:58:21;17.20;99.90
40660;DHT22;26753;45.544;9.232;2022-10-19T06:00:52;17.20;99.90
40660;DHT22;26753;45.544;9.232;2022-10-19T06:03:18;17.20;99.90
40660;DHT22;26753;45.544;9.232;2022-10-19T06:05:43;17.20;99.90
40660;DHT22;26753;45.544;9.232;2022-10-19T06:08:09;17.20;99.90
40660;DHT22;26753;45.544;9.232;2022-10-19T06:10:35;17.20;99.90
40660;DHT22;26753;45.544;9.232;2022-10-19T06:13:00;17.30;99.90
40660;DHT22;26753;45.544;9.232;2022-10-19T06:15:26;17.30;99.90
40660;DHT22;26753;45.544;9.232;2022-10-19T06:17:51;17.40;99.90
40660;DHT22;26753;45.544;9.232;2022-10-19T06:20:17;17.40;99.90
40660;DHT22;26753;45.544;9.232;2022-10-19T06:22:43;17.30;99.90
40660;DHT22;26753;45.544;9.232;2022-10-19T06:25:09;17.40;99.90
40660;DHT22;26753;45.544;9.232;2022-10-19T06:27:34;17.40;99.90
40660;DHT22;26753;45.544;9.232;2022-10-19T06:30:00;17.60;99.90
40660;DHT22;26753;45.544;9.232;2022-10-19T06:32:26;17.60;99.90
40660;DHT22;26753;45.544;9.232;2022-10-19T06:34:53;17.70;99.90
40660;DHT22;26753;45.544;9.232;2022-10-19T06:37:18;17.80;99.90
40660;DHT22;26753;45.544;9.232;2022-10-19T06:39:44;17.80;99.90
40660;DHT22;26753;45.544;9.232;2022-10-19T06:42:09;18.00;99.90
40660;DHT22;26753;45.544;9.232;2022-10-19T06:44:35;18.00;99.90
40660;DHT22;26753;45.544;9.232;2022-10-19T06:47:06;18.10;99.90
40660;DHT22;26753;45.544;9.232;2022-10-19T06:49:35;18.10;99.90
40660;DHT22;26753;45.544;9.232;2022-10-19T06:52:23;18.10;99.90
40660;DHT22;26753;45.544;9.232;2022-10-19T06:54:48;18.40;99.90
40660;DHT22;26753;45.544;9.232;2022-10-19T06:57:13;18.10;99.90
40660;DHT22;26753;45.544;9.232;2022-10-19T06:59:39;18.20;99.90
40660;DHT22;26753;45.544;9.232;2022-10-19T07:02:11;18.30;99.90
40660;DHT22;26753;45.544;9.232;2022-10-19T07:04:37;18.30;99.90
40660;DHT22;26753;45.544;9.232;2022-10-19T07:07:03;18.30;99.90
40660;DHT22;26753;45.544;9.232;2022-10-19T07:09:32;18.30;99.90
40660;DHT22;26753;45.544;9.232;2022-10-19T07:12:04;18.40;99.90
40660;DHT22;26753;45.544;9.232;2022-10-19T07:14:30;18.40;99.90
40660;DHT22;26753;45.544;9.232;2022-10-19T07:17:03;18.40;99.90
40660;DHT22;26753;45.544;9.232;2022-10-19T07:19:29;18.50;99.90
40660;DHT22;26753;45.544;9.232;2022-10-19T07:21:56;18.60;99.90
40660;DHT22;26753;45.544;9.232;2022-10-19T07:24:22;18.70;99.90
40660;DHT22;26753;45.544;9.232;2022-10-19T07:26:48;18.80;99.90
40660;DHT22;26753;45.544;9.232;2022-10-19T07:29:15;18.90;99.90
40660;DHT22;26753;45.544;9.232;2022-10-19T07:31:40;19.00;99.90
40660;DHT22;26753;45.544;9.232;2022-10-19T07:34:10;19.10;99.90
40660;DHT22;26753;45.544;9.232;2022-10-19T07:36:36;19.00;99.90
40660;DHT22;26753;45.544;9.232;2022-10-19T07:39:09;19.10;99.90
40660;DHT22;26753;45.544;9.232;2022-10-19T07:41:36;19.30;99.90
40660;DHT22;26753;45.544;9.232;2022-10-19T07:44:02;19.40;99.90
40660;DHT22;26753;45.544;9.232;2022-10-19T07:46:34;19.50;99.90
40660;DHT22;26753;45.544;9.232;2022-10-19T07:49:06;19.50;99.90
40660;DHT22;26753;45.544;9.232;2022-10-19T07:51:35;19.60;99.90
40660;DHT22;26753;45.544;9.232;2022-10-19T07:54:03;19.60;99.90
40660;DHT22;26753;45.544;9.232;2022-10-19T07:56:33;19.80;99.90
40660;DHT22;26753;45.544;9.232;2022-10-19T07:59:00;19.90;99.90
40660;DHT22;26753;45.544;9.232;2022-10-19T08:01:41;19.90;99.90
40660;DHT22;26753;45.544;9.232;2022-10-19T08:04:20;20.00;99.90
40660;DHT22;26753;45.544;9.232;2022-10-19T08:06:46;20.00;99.90
40660;DHT22;26753;45.544;9.232;2022-10-19T08:09:15;20.30;99.90
40660;DHT22;26753;45.544;9.232;2022-10-19T08:11:52;20.40;99.90
40660;DHT22;26753;45.544;9.232;2022-10-19T08:14:18;20.50;99.90
40660;DHT22;26753;45.544;9.232;2022-10-19T08:16:46;20.60;99.90
40660;DHT22;26753;45.544;9.232;2022-10-19T08:19:18;20.70;99.90
40660;DHT22;26753;45.544;9.232;2022-10-19T08:21:45;20.80;99.90
40660;DHT22;26753;45.544;9.232;2022-10-19T08:24:13;20.90;99.90
40660;DHT22;26753;45.544;9.232;2022-10-19T08:26:39;21.00;99.90
40660;DHT22;26753;45.544;9.232;2022-10-19T08:29:07;21.10;99.90
40660;DHT22;26753;45.544;9.232;2022-10-19T08:31:34;21.20;99.90
40660;DHT22;26753;45.544;9.232;2022-10-19T08:34:01;21.40;99.90
40660;DHT22;26753;45.544;9.232;2022-10-19T08:36:27;21.40;99.90
40660;DHT22;26753;45.544;9.232;2022-10-19T08:38:56;21.50;99.90
40660;DHT22;26753;45.544;9.232;2022-10-19T08:44:40;21.70;99.90
40660;DHT22;26753;45.544;9.232;2022-10-19T08:49:47;21.70;99.90
40660;DHT22;26753;45.544;9.232;2022-10-19T08:52:18;21.70;99.90
40660;DHT22;26753;45.544;9.232;2022-10-19T08:54:56;21.80;99.90
40660;DHT22;26753;45.544;9.232;2022-10-19T08:57:45;22.00;99.90
40660;DHT22;26753;45.544;9.232;2022-10-19T09:00:51;22.10;99.90
40660;DHT22;26753;45.544;9.232;2022-10-19T09:08:33;22.50;99.90
40660;DHT22;26753;45.544;9.232;2022-10-19T09:11:01;22.70;99.90
40660;DHT22;26753;45.544;9.232;2022-10-19T09:13:43;22.70;99.90
40660;DHT22;26753;45.544;9.232;2022-10-19T09:16:20;22.90;99.90
40660;DHT22;26753;45.544;9.232;2022-10-19T09:19:17;23.00;99.90
40660;DHT22;26753;45.544;9.232;2022-10-19T09:25:33;23.30;99.90
40660;DHT22;26753;45.544;9.232;2022-10-19T09:27:42;23.30;99.90
40660;DHT22;26753;45.544;9.232;2022-10-19T09:30:20;22.80;99.90
40660;DHT22;26753;45.544;9.232;2022-10-19T09:32:48;23.40;99.90
40660;DHT22;26753;45.544;9.232;2022-10-19T09:35:31;23.40;99.90
40660;DHT22;26753;45.544;9.232;2022-10-19T09:37:58;23.60;99.90
40660;DHT22;26753;45.544;9.232;2022-10-19T09:40:29;23.70;99.90
40660;DHT22;26753;45.544;9.232;2022-10-19T09:42:58;23.90;99.90
40660;DHT22;26753;45.544;9.232;2022-10-19T09:45:39;24.00;99.90
40660;DHT22;26753;45.544;9.232;2022-10-19T09:48:18;24.20;99.90
40660;DHT22;26753;45.544;9.232;2022-10-19T09:50:48;24.40;99.90
40660;DHT22;26753;45.544;9.232;2022-10-19T09:53:28;24.40;99.90
40660;DHT22;26753;45.544;9.232;2022-10-19T09:56:07;24.60;99.90
40660;DHT22;26753;45.544;9.232;2022-10-19T09:58:53;24.70;99.90
40660;DHT22;26753;45.544;9.232;2022-10-19T10:01:45;24.80;99.90
40660;DHT22;26753;45.544;9.232;2022-10-19T10:04:53;24.90;99.90
40660;DHT22;26753;45.544;9.232;2022-10-19T10:07:23;25.10;99.90
40660;DHT22;26753;45.544;9.232;2022-10-19T10:09:51;25.20;99.90
40660;DHT22;26753;45.544;9.232;2022-10-19T10:12:17;25.30;99.90
40660;DHT22;26753;45.544;9.232;2022-10-19T10:14:48;25.40;99.90
40660;DHT22;26753;45.544;9.232;2022-10-19T10:17:28;25.60;99.90
40660;DHT22;26753;45.544;9.232;2022-10-19T10:22:37;25.90;99.90
40660;DHT22;26753;45.544;9.232;2022-10-19T10:25:33;25.90;99.90
40660;DHT22;26753;45.544;9.232;2022-10-19T10:28:02;26.10;99.90
40660;DHT22;26753;45.544;9.232;2022-10-19T10:30:38;26.10;99.90
40660;DHT22;26753;45.544;9.232;2022-10-19T10:33:04;26.20;99.90
40660;DHT22;26753;45.544;9.232;2022-10-19T10:35:35;26.20;99.90
40660;DHT22;26753;45.544;9.232;2022-10-19T10:38:10;26.20;99.90
40660;DHT22;26753;45.544;9.232;2022-10-19T10:40:38;26.20;99.90
40660;DHT22;26753;45.544;9.232;2022-10-19T10:43:12;26.70;99.90
40660;DHT22;26753;45.544;9.232;2022-10-19T10:45:45;26.80;99.90
40660;DHT22;26753;45.544;9.232;2022-10-19T10:50:42;27.00;99.90
40660;DHT22;26753;45.544;9.232;2022-10-19T10:56:36;27.10;99.90
40660;DHT22;26753;45.544;9.232;2022-10-19T10:59:25;27.30;99.90
40660;DHT22;26753;45.544;9.232;2022-10-19T11:02:27;27.50;99.90
40660;DHT22;26753;45.544;9.232;2022-10-19T11:08:45;27.80;99.90
40660;DHT22;26753;45.544;9.232;2022-10-19T11:13:48;28.00;99.90
40660;DHT22;26753;45.544;9.232;2022-10-19T11:16:26;27.90;99.90
40660;DHT22;26753;45.544;9.232;2022-10-19T11:19:33;28.10;99.90
40660;DHT22;26753;45.544;9.232;2022-10-19T11:30:26;28.80;99.90
40660;DHT22;26753;45.544;9.232;2022-10-19T11:33:05;29.00;99.90
40660;DHT22;26753;45.544;9.232;2022-10-19T12:00:40;32.80;96.90
40660;DHT22;26753;45.544;9.232;2022-10-19T12:06:02;33.00;93.80
40660;DHT22;26753;45.544;9.232;2022-10-19T12:17:54;41.50;78.20
40660;DHT22;26753;45.544;9.232;2022-10-19T12:20:37;43.40;72.10
40660;DHT22;26753;45.544;9.232;2022-10-19T12:23:26;44.90;67.00
40660;DHT22;26753;45.544;9.232;2022-10-19T12:25:56;46.20;62.00
40660;DHT22;26753;45.544;9.232;2022-10-19T12:28:34;46.20;61.30
40660;DHT22;26753;45.544;9.232;2022-10-19T12:31:08;46.40;59.40
40660;DHT22;26753;45.544;9.232;2022-10-19T12:34:01;46.70;58.90
40660;DHT22;26753;45.544;9.232;2022-10-19T12:47:38;49.90;53.90
40660;DHT22;26753;45.544;9.232;2022-10-19T12:50:04;50.00;53.40
40660;DHT22;26753;45.544;9.232;2022-10-19T13:00:36;50.20;52.30
40660;DHT22;26753;45.544;9.232;2022-10-19T13:03:14;50.90;51.50
40660;DHT22;26753;45.544;9.232;2022-10-19T13:06:08;50.70;51.20
40660;DHT22;26753;45.544;9.232;2022-10-19T13:14:52;51.30;50.30
40660;DHT22;26753;45.544;9.232;2022-10-19T13:38:44;52.20;47.90
40660;DHT22;26753;45.544;9.232;2022-10-19T13:41:22;52.30;47.80
40660;DHT22;26753;45.544;9.232;2022-10-19T13:55:07;53.30;47.60
40660;DHT22;26753;45.544;9.232;2022-10-19T14:04:16;53.90;47.00
40660;DHT22;26753;45.544;9.232;2022-10-19T14:06:46;54.40;46.60
40660;DHT22;26753;45.544;9.232;2022-10-19T14:09:36;53.80;46.40
40660;DHT22;26753;45.544;9.232;2022-10-19T14:12:29;53.20;46.40
40660;DHT22;26753;45.544;9.232;2022-10-19T14:14:56;53.10;46.70
40660;DHT22;26753;45.544;9.232;2022-10-19T14:17:31;52.10;46.30
40660;DHT22;26753;45.544;9.232;2022-10-19T14:22:52;50.40;47.30
40660;DHT22;26753;45.544;9.232;2022-10-19T14:25:24;50.10;47.50
40660;DHT22;26753;45.544;9.232;2022-10-19T14:28:00;49.70;47.60
40660;DHT22;26753;45.544;9.232;2022-10-19T14:30:35;48.90;47.80
40660;DHT22;26753;45.544;9.232;2022-10-19T14:33:10;48.40;48.30
40660;DHT22;26753;45.544;9.232;2022-10-19T14:35:39;47.70;48.50
40660;DHT22;26753;45.544;9.232;2022-10-19T14:38:07;47.80;49.00
40660;DHT22;26753;45.544;9.232;2022-10-19T14:40:40;48.10;48.90
40660;DHT22;26753;45.544;9.232;2022-10-19T14:43:22;48.00;49.00
40660;DHT22;26753;45.544;9.232;2022-10-19T14:48:34;44.20;49.90
40660;DHT22;26753;45.544;9.232;2022-10-19T14:51:00;41.90;51.80
40660;DHT22;26753;45.544;9.232;2022-10-19T14:53:40;40.40;53.10
40660;DHT22;26753;45.544;9.232;2022-10-19T14:56:28;38.60;54.60
40660;DHT22;26753;45.544;9.232;2022-10-19T15:01:57;36.60;57.30
40660;DHT22;26753;45.544;9.232;2022-10-19T15:04:28;36.00;57.90
40660;DHT22;26753;45.544;9.232;2022-10-19T15:06:55;35.50;58.50
40660;DHT22;26753;45.544;9.232;2022-10-19T15:09:32;35.10;59.10
40660;DHT22;26753;45.544;9.232;2022-10-19T15:12:13;34.50;59.80
40660;DHT22;26753;45.544;9.232;2022-10-19T15:14:40;34.40;60.50
40660;DHT22;26753;45.544;9.232;2022-10-19T15:17:28;34.10;61.00
40660;DHT22;26753;45.544;9.232;2022-10-19T15:19:55;34.00;61.60
40660;DHT22;26753;45.544;9.232;2022-10-19T15:22:37;33.40;62.20
40660;DHT22;26753;45.544;9.232;2022-10-19T15:27:40;33.00;63.20
40660;DHT22;26753;45.544;9.232;2022-10-19T15:32:53;32.60;64.00
40660;DHT22;26753;45.544;9.232;2022-10-19T15:35:37;32.30;64.40
40660;DHT22;26753;45.544;9.232;2022-10-19T15:38:28;32.10;64.90
40660;DHT22;26753;45.544;9.232;2022-10-19T15:41:00;31.80;65.50
40660;DHT22;26753;45.544;9.232;2022-10-19T15:46:07;31.40;66.70
40660;DHT22;26753;45.544;9.232;2022-10-19T15:48:46;31.20;67.10
40660;DHT22;26753;45.544;9.232;2022-10-19T15:53:52;30.60;68.60
40660;DHT22;26753;45.544;9.232;2022-10-19T15:56:19;30.40;69.20
40660;DHT22;26753;45.544;9.232;2022-10-19T15:58:48;30.10;70.50
40660;DHT22;26753;45.544;9.232;2022-10-19T16:01:19;30.00;70.40
40660;DHT22;26753;45.544;9.232;2022-10-19T16:03:47;29.90;71.10
40660;DHT22;26753;45.544;9.232;2022-10-19T16:06:15;29.70;71.40
40660;DHT22;26753;45.544;9.232;2022-10-19T16:08:41;29.60;72.10
40660;DHT22;26753;45.544;9.232;2022-10-19T16:11:14;29.40;72.70
40660;DHT22;26753;45.544;9.232;2022-10-19T16:14:02;29.20;73.50
40660;DHT22;26753;45.544;9.232;2022-10-19T16:16:34;29.10;74.10
40660;DHT22;26753;45.544;9.232;2022-10-19T16:19:00;28.90;74.80
40660;DHT22;26753;45.544;9.232;2022-10-19T16:21:32;28.80;75.50
40660;DHT22;26753;45.544;9.232;2022-10-19T16:23:58;28.70;76.20
40660;DHT22;26753;45.544;9.232;2022-10-19T16:26:24;28.50;76.80
40660;DHT22;26753;45.544;9.232;2022-10-19T16:28:51;28.40;77.50
40660;DHT22;26753;45.544;9.232;2022-10-19T16:31:18;28.30;78.20
40660;DHT22;26753;45.544;9.232;2022-10-19T16:33:44;28.10;79.00
40660;DHT22;26753;45.544;9.232;2022-10-19T16:36:10;28.00;79.90
40660;DHT22;26753;45.544;9.232;2022-10-19T16:38:36;27.80;80.60
40660;DHT22;26753;45.544;9.232;2022-10-19T16:41:04;27.80;81.30
40660;DHT22;26753;45.544;9.232;2022-10-19T16:43:30;27.70;81.90
40660;DHT22;26753;45.544;9.232;2022-10-19T16:45:57;27.60;82.60
40660;DHT22;26753;45.544;9.232;2022-10-19T16:48:23;27.50;83.40
40660;DHT22;26753;45.544;9.232;2022-10-19T16:53:36;27.40;85.40
40660;DHT22;26753;45.544;9.232;2022-10-19T16:56:08;27.30;85.90
40660;DHT22;26753;45.544;9.232;2022-10-19T16:58:34;27.20;87.00
40660;DHT22;26753;45.544;9.232;2022-10-19T17:01:17;27.10;87.50
40660;DHT22;26753;45.544;9.232;2022-10-19T17:03:44;27.10;88.90
40660;DHT22;26753;45.544;9.232;2022-10-19T17:06:10;27.00;89.40
40660;DHT22;26753;45.544;9.232;2022-10-19T17:08:37;26.90;90.10
40660;DHT22;26753;45.544;9.232;2022-10-19T17:11:23;26.90;90.50
40660;DHT22;26753;45.544;9.232;2022-10-19T17:13:51;26.80;90.90
40660;DHT22;26753;45.544;9.232;2022-10-19T17:16:18;26.70;91.40
40660;DHT22;26753;45.544;9.232;2022-10-19T17:18:44;26.60;92.00
40660;DHT22;26753;45.544;9.232;2022-10-19T17:21:17;26.50;92.60
40660;DHT22;26753;45.544;9.232;2022-10-19T17:23:43;26.40;93.20
40660;DHT22;26753;45.544;9.232;2022-10-19T17:26:09;26.30;93.60
40660;DHT22;26753;45.544;9.232;2022-10-19T17:28:36;26.30;94.20
40660;DHT22;26753;45.544;9.232;2022-10-19T17:31:08;26.20;94.90
40660;DHT22;26753;45.544;9.232;2022-10-19T17:33:34;26.10;95.70
40660;DHT22;26753;45.544;9.232;2022-10-19T17:36:08;26.00;96.40
40660;DHT22;26753;45.544;9.232;2022-10-19T17:38:35;25.90;97.50
40660;DHT22;26753;45.544;9.232;2022-10-19T17:41:03;25.80;98.10
40660;DHT22;26753;45.544;9.232;2022-10-19T17:43:29;25.80;98.70
40660;DHT22;26753;45.544;9.232;2022-10-19T17:46:02;25.70;99.30
40660;DHT22;26753;45.544;9.232;2022-10-19T17:48:30;25.70;99.90
40660;DHT22;26753;45.544;9.232;2022-10-19T17:51:06;25.60;99.90
40660;DHT22;26753;45.544;9.232;2022-10-19T17:53:33;26.00;99.90
40660;DHT22;26753;45.544;9.232;2022-10-19T17:56:01;25.40;99.90
40660;DHT22;26753;45.544;9.232;2022-10-19T17:58:27;25.40;99.90
40660;DHT22;26753;45.544;9.232;2022-10-19T18:00:54;25.30;99.90
40660;DHT22;26753;45.544;9.232;2022-10-19T18:03:22;25.20;99.90
40660;DHT22;26753;45.544;9.232;2022-10-19T18:05:58;25.10;99.90
40660;DHT22;26753;45.544;9.232;2022-10-19T18:08:24;24.90;99.90
40660;DHT22;26753;45.544;9.232;2022-10-19T18:10:59;24.80;99.90
40660;DHT22;26753;45.544;9.232;2022-10-19T18:13:25;24.80;99.90
40660;DHT22;26753;45.544;9.232;2022-10-19T18:15:51;24.80;99.90
40660;DHT22;26753;45.544;9.232;2022-10-19T18:18:17;24.80;99.90
40660;DHT22;26753;45.544;9.232;2022-10-19T18:20:44;24.70;99.90
40660;DHT22;26753;45.544;9.232;2022-10-19T18:23:10;24.70;99.90
40660;DHT22;26753;45.544;9.232;2022-10-19T18:25:36;24.70;99.90
40660;DHT22;26753;45.544;9.232;2022-10-19T18:28:02;24.60;99.90
40660;DHT22;26753;45.544;9.232;2022-10-19T18:30:28;24.60;99.90
40660;DHT22;26753;45.544;9.232;2022-10-19T18:32:54;24.50;99.90
40660;DHT22;26753;45.544;9.232;2022-10-19T18:35:20;24.50;99.90
40660;DHT22;26753;45.544;9.232;2022-10-19T18:37:45;24.30;99.90
40660;DHT22;26753;45.544;9.232;2022-10-19T18:40:11;24.30;99.90
40660;DHT22;26753;45.544;9.232;2022-10-19T18:42:37;24.20;99.90
40660;DHT22;26753;45.544;9.232;2022-10-19T18:45:03;24.20;99.90
40660;DHT22;26753;45.544;9.232;2022-10-19T18:47:29;24.10;99.90
40660;DHT22;26753;45.544;9.232;2022-10-19T18:49:55;24.10;99.90
40660;DHT22;26753;45.544;9.232;2022-10-19T18:52:21;24.10;99.90
40660;DHT22;26753;45.544;9.232;2022-10-19T18:54:46;24.10;99.90